createdAt,value
2022-11-23T00:02:02.825Z,94391.00
2022-11-23T00:07:30.712Z,94400.00
2022-11-23T00:12:58.598Z,94404.00
2022-11-23T00:18:26.404Z,94394.00
2022-11-23T00:23:54.418Z,94400.00
2022-11-23T00:29:22.382Z,94392.00
2022-11-23T00:34:50.184Z,94401.00
2022-11-23T00:40:19.153Z,94400.00
2022-11-23T00:45:49.492Z,94396.00
2022-11-23T00:51:22.283Z,94391.00
2022-11-23T00:56:50.094Z,94396.00
2022-11-23T01:02:17.907Z,94403.00
2022-11-23T01:07:45.857Z,94399.00
2022-11-23T01:13:13.839Z,94403.00
2022-11-23T01:18:41.953Z,94405.00
2022-11-23T01:24:20.156Z,94407.00
2022-11-23T01:29:50.631Z,94405.00
2022-11-23T01:35:20.103Z,94412.00
2022-11-23T01:40:47.886Z,94409.00
2022-11-23T01:46:15.911Z,94406.00
2022-11-23T01:51:49.021Z,94414.00
2022-11-23T01:57:25.269Z,94417.00
2022-11-23T02:03:00.387Z,94416.00
2022-11-23T02:08:30.996Z,94425.00
2022-11-23T02:14:00.254Z,94421.00
2022-11-23T02:19:51.779Z,94428.00
2022-11-23T02:25:44.363Z,94416.00
2022-11-23T02:31:12.215Z,94412.00
2022-11-23T02:36:47.576Z,94410.00
2022-11-23T02:42:15.375Z,94411.00
2022-11-23T02:47:43.150Z,94418.00
2022-11-23T02:53:11.448Z,94424.00
2022-11-23T02:58:39.265Z,94419.00
2022-11-23T03:04:08.570Z,94420.00
2022-11-23T03:09:36.388Z,94426.00
2022-11-23T03:15:04.836Z,94432.00
2022-11-23T03:20:34.001Z,94428.00
2022-11-23T03:26:02.927Z,94427.00
2022-11-23T03:31:36.754Z,94429.00
2022-11-23T03:37:07.510Z,94429.00
2022-11-23T03:42:35.499Z,94423.00
2022-11-23T03:48:03.835Z,94415.00
2022-11-23T03:53:32.281Z,94420.00
2022-11-23T03:59:00.685Z,94411.00
2022-11-23T04:04:29.386Z,94411.00
2022-11-23T04:10:08.069Z,94418.00
2022-11-23T04:15:58.402Z,94416.00
2022-11-23T04:21:26.362Z,94399.00
2022-11-23T04:26:54.458Z,94402.00
2022-11-23T04:32:22.443Z,94409.00
2022-11-23T04:37:50.626Z,94408.00
2022-11-23T04:43:19.533Z,94408.00
2022-11-23T04:48:49.324Z,94404.00
2022-11-23T04:54:18.810Z,94396.00
2022-11-23T04:59:52.928Z,94409.00
2022-11-23T05:05:20.972Z,94398.00
2022-11-23T05:10:49.457Z,94398.00
2022-11-23T05:16:17.415Z,94395.00
2022-11-23T05:21:45.328Z,94401.00
2022-11-23T05:27:15.010Z,94389.00
2022-11-23T05:32:42.870Z,94386.00
2022-11-23T05:38:10.966Z,94395.00
2022-11-23T05:43:38.924Z,94387.00
2022-11-23T05:49:10.215Z,94387.00
2022-11-23T05:54:39.897Z,94381.00
2022-11-23T06:00:14.467Z,94390.00
2022-11-23T06:05:48.716Z,94392.00
2022-11-23T06:11:20.468Z,94394.00
2022-11-23T06:16:49.405Z,94396.00
2022-11-23T06:22:29.503Z,94389.00
2022-11-23T06:28:02.001Z,94388.00
2022-11-23T06:33:41.367Z,94389.00
2022-11-23T06:39:10.677Z,94389.00
2022-11-23T06:44:39.244Z,94391.00
2022-11-23T06:50:09.535Z,94402.00
2022-11-23T06:55:39.265Z,94405.00
2022-11-23T07:01:10.160Z,94416.00
2022-11-23T07:06:44.868Z,94421.00
2022-11-23T07:12:25.340Z,94427.00
2022-11-23T07:17:54.045Z,94424.00
2022-11-23T07:23:23.740Z,94443.00
2022-11-23T07:28:51.511Z,94436.00
2022-11-23T07:34:19.588Z,94443.00
2022-11-23T07:40:03.393Z,94455.00
2022-11-23T07:45:33.525Z,94451.00
2022-11-23T07:51:01.763Z,94454.00
2022-11-23T07:56:29.510Z,94460.00
2022-11-23T08:01:58.698Z,94462.00
2022-11-23T08:07:26.617Z,94465.00
2022-11-23T08:12:57.846Z,94475.00
2022-11-23T08:18:25.719Z,94469.00
2022-11-23T08:23:53.429Z,94476.00
2022-11-23T08:29:23.899Z,94481.00
2022-11-23T08:34:51.602Z,94468.00
2022-11-23T08:40:24.785Z,94450.00
2022-11-23T08:46:03.903Z,94466.00
2022-11-23T08:51:34.585Z,94473.00
2022-11-23T08:57:02.343Z,94475.00
2022-11-23T09:02:30.162Z,94476.00
2022-11-23T09:08:01.513Z,94482.00
2022-11-23T09:13:30.116Z,94479.00
2022-11-23T09:18:57.922Z,94469.00
2022-11-23T09:24:28.005Z,94480.00
2022-11-23T09:29:55.750Z,94476.00
2022-11-23T09:35:23.658Z,94481.00
2022-11-23T09:41:24.906Z,94467.00
2022-11-23T09:47:32.651Z,94467.00
2022-11-23T09:53:09.711Z,94470.00
2022-11-23T09:58:41.252Z,94463.00
2022-11-23T10:04:23.508Z,94461.00
2022-11-23T10:09:57.875Z,94460.00
2022-11-23T10:15:43.929Z,94456.00
2022-11-23T10:21:32.833Z,94451.00
2022-11-23T10:27:02.737Z,94435.00
2022-11-23T10:32:45.978Z,94442.00
2022-11-23T10:38:19.320Z,94433.00
2022-11-23T10:44:04.988Z,94432.00
2022-11-23T10:49:37.144Z,94417.00
2022-11-23T10:55:09.313Z,94428.00
2022-11-23T11:00:39.051Z,94423.00
2022-11-23T11:06:09.568Z,94423.00
2022-11-23T11:11:46.040Z,94410.00
2022-11-23T11:17:28.291Z,94419.00
2022-11-23T11:23:02.115Z,94414.00
2022-11-23T11:28:44.372Z,94422.00
2022-11-23T11:34:35.121Z,94418.00
2022-11-23T11:40:12.058Z,94401.00
2022-11-23T11:46:21.788Z,94403.00
2022-11-23T11:52:07.306Z,94402.00
2022-11-23T11:57:49.643Z,94394.00
2022-11-23T12:03:43.101Z,94391.00
2022-11-23T12:09:23.208Z,94389.00
2022-11-23T12:14:51.734Z,94369.00
2022-11-23T12:20:29.000Z,94387.00
2022-11-23T12:26:24.552Z,94372.00
2022-11-23T12:32:37.732Z,94370.00
2022-11-23T12:38:41.661Z,94369.00
2022-11-23T12:45:17.525Z,94363.00
2022-11-23T12:51:21.005Z,94371.00
2022-11-23T12:57:23.184Z,94363.00
2022-11-23T13:02:56.697Z,94360.00
2022-11-23T13:08:45.309Z,94354.00
2022-11-23T13:14:44.544Z,94362.00
2022-11-23T13:20:22.048Z,94374.00
2022-11-23T13:26:17.513Z,94376.00
2022-11-23T13:31:45.311Z,94380.00
2022-11-23T13:37:13.797Z,94370.00
2022-11-23T13:42:42.643Z,94377.00
2022-11-23T13:48:13.289Z,94381.00
2022-11-23T13:53:57.376Z,94380.00
2022-11-23T13:59:37.433Z,94377.00
2022-11-23T14:05:52.935Z,94362.00
2022-11-23T14:11:24.315Z,94358.00
2022-11-23T14:17:24.498Z,94358.00
2022-11-23T14:23:00.032Z,94365.00
2022-11-23T14:29:04.170Z,94355.00
2022-11-23T14:35:13.066Z,94371.00
2022-11-23T14:41:18.087Z,94356.00
2022-11-23T14:47:08.843Z,94372.00
2022-11-23T14:52:39.540Z,94372.00
2022-11-23T14:58:18.534Z,94370.00
2022-11-23T15:04:00.966Z,94369.00
2022-11-23T15:09:49.307Z,94381.00
2022-11-23T15:15:26.798Z,94378.00
2022-11-23T15:20:55.299Z,94376.00
2022-11-23T15:32:31.252Z,94380.00
2022-11-23T15:38:02.986Z,94376.00
2022-11-23T15:43:31.442Z,94378.00
2022-11-23T15:49:02.860Z,94377.00
2022-11-23T15:54:39.718Z,94372.00
2022-11-23T16:00:14.366Z,94367.00
2022-11-23T16:05:42.900Z,94366.00
2022-11-23T16:11:52.440Z,94364.00
2022-11-23T16:17:24.512Z,94357.00
2022-11-23T16:23:00.541Z,94357.00
2022-11-23T16:28:35.346Z,94378.00
2022-11-23T16:34:19.015Z,94364.00
2022-11-23T16:39:50.902Z,94360.00
2022-11-23T16:45:19.509Z,94375.00
2022-11-23T16:50:48.116Z,94378.00
2022-11-23T16:56:26.524Z,94375.00
2022-11-23T17:01:57.515Z,94372.00
2022-11-23T17:07:34.857Z,94362.00
2022-11-23T17:13:43.347Z,94368.00
2022-11-23T17:19:20.240Z,94372.00
2022-11-23T17:24:57.478Z,94370.00
2022-11-23T17:30:30.333Z,94370.00
2022-11-23T17:36:00.297Z,94364.00
2022-11-23T17:41:33.849Z,94371.00
2022-11-23T17:47:07.476Z,94372.00
2022-11-23T17:52:36.695Z,94388.00
2022-11-23T17:58:10.187Z,94397.00
2022-11-23T18:03:38.649Z,94387.00
2022-11-23T18:09:07.329Z,94392.00
2022-11-23T18:14:45.175Z,94386.00
2022-11-23T18:20:13.914Z,94395.00
2022-11-23T18:25:43.083Z,94394.00
2022-11-23T18:31:11.922Z,94402.00
2022-11-23T18:36:40.371Z,94411.00
2022-11-23T18:42:09.204Z,94422.00
2022-11-23T18:47:42.526Z,94426.00
2022-11-23T18:53:13.385Z,94433.00
2022-11-23T18:58:51.721Z,94443.00
2022-11-23T19:04:25.522Z,94454.00
2022-11-23T19:09:56.913Z,94461.00
2022-11-23T19:15:25.610Z,94477.00
2022-11-23T19:20:57.305Z,94502.00
2022-11-23T19:26:28.874Z,94495.00
2022-11-23T19:32:03.627Z,94508.00
2022-11-23T19:37:35.900Z,94523.00
2022-11-23T19:43:07.200Z,94526.00
2022-11-23T19:48:38.432Z,94547.00
2022-11-23T19:54:09.820Z,94578.00
2022-11-23T19:59:40.518Z,94595.00
2022-11-23T20:05:16.156Z,94599.00
2022-11-23T20:10:45.776Z,94610.00
2022-11-23T20:16:20.221Z,94623.00
2022-11-23T20:21:54.688Z,94635.00
2022-11-23T20:27:24.628Z,94656.00
2022-11-23T20:32:53.028Z,94671.00
2022-11-23T20:38:30.006Z,94693.00
2022-11-23T20:44:14.616Z,94698.00
2022-11-23T20:49:43.010Z,94696.00
2022-11-23T20:55:13.156Z,94698.00
2022-11-23T21:00:51.399Z,94707.00
2022-11-23T21:06:23.193Z,94724.00
2022-11-23T21:12:10.332Z,94741.00
2022-11-23T21:17:38.921Z,94742.00
2022-11-23T21:23:07.422Z,94728.00
2022-11-23T21:28:44.626Z,94722.00
2022-11-23T21:34:34.133Z,94735.00
2022-11-23T21:40:08.747Z,94722.00
2022-11-23T21:45:58.049Z,94717.00
2022-11-23T21:51:31.398Z,94722.00
2022-11-23T21:57:02.450Z,94730.00
2022-11-23T22:02:32.117Z,94734.00
2022-11-23T22:13:58.583Z,94738.00
2022-11-23T22:19:29.850Z,94743.00
2022-11-23T22:25:07.329Z,94738.00
2022-11-23T22:30:35.062Z,94744.00
2022-11-23T22:36:16.014Z,94747.00
2022-11-23T22:41:43.861Z,94754.00
2022-11-23T22:47:13.915Z,94772.00
2022-11-23T22:52:42.405Z,94760.00
2022-11-23T22:58:13.199Z,94767.00
2022-11-23T23:03:42.066Z,94780.00
2022-11-23T23:09:10.290Z,94783.00
2022-11-23T23:14:38.192Z,94796.00
2022-11-23T23:20:06.772Z,94808.00
2022-11-23T23:25:35.619Z,94817.00
2022-11-23T23:31:10.645Z,94816.00
2022-11-23T23:36:39.250Z,94823.00
2022-11-23T23:42:09.833Z,94838.00
2022-11-23T23:47:37.938Z,94843.00
2022-11-23T23:53:05.971Z,94863.00
2022-11-23T23:58:34.221Z,94875.00
